Kayare, Texas
Current Conditions -  °F | °C
As of 12:52 PM on Saturday 25 Oct 2014 (Local Time) from KHRL Reporting Station
Clear Clear  
Wind Chill: 83°   Ceiling: Unl
Heat Index: 85°   Visibility: 10mi
Dew Point: 65°   Wind: 3mph
Humidity: 54%   Direction: NA
Pressure: 30.13"   Gusts: NA
Location:  26.2089°N, 97.6849°W
Report Text: KHRL 251752Z VRB03KT 10SM CLR 28/18 A3013 RMK AO2 SLP203 T02830183 10289 20156 58011
Loading
Personal Weather Stations






























Interactive Weather Map
Tropical Storm Tracking
New forecast layout! Learn more

10-Day Weather Forecast

Advertisements
Track Severe Weather on mobile